createdAt,value
2022-12-19T00:01:44.736Z,-6.10
2022-12-19T00:06:47.312Z,-6.10
2022-12-19T00:11:49.716Z,-6.10
2022-12-19T00:16:53.262Z,-6.00
2022-12-19T00:21:55.596Z,-6.00
2022-12-19T00:26:58.025Z,-6.00
2022-12-19T00:32:03.566Z,-6.00
2022-12-19T00:37:06.336Z,-5.90
2022-12-19T00:42:08.748Z,-6.00
2022-12-19T00:47:11.113Z,-6.00
2022-12-19T00:52:13.515Z,-6.00
2022-12-19T00:57:15.930Z,-5.90
2022-12-19T01:02:18.498Z,-5.90
2022-12-19T01:07:22.186Z,-5.90
2022-12-19T01:12:42.993Z,-5.90
2022-12-19T01:17:45.548Z,-5.90
2022-12-19T01:22:47.904Z,-5.90
2022-12-19T01:27:50.270Z,-5.80
2022-12-19T01:32:52.788Z,-5.80
2022-12-19T01:38:07.942Z,-5.80
2022-12-19T01:43:15.167Z,-5.80
2022-12-19T01:48:19.051Z,-5.80
2022-12-19T01:53:23.148Z,-5.80
2022-12-19T01:58:25.914Z,-5.80
2022-12-19T02:03:30.586Z,-5.80
2022-12-19T02:08:33.783Z,-5.80
2022-12-19T02:13:37.608Z,-5.80
2022-12-19T02:19:13.092Z,-5.80
2022-12-19T02:24:55.347Z,-5.80
2022-12-19T02:30:28.935Z,-5.80
2022-12-19T02:35:48.874Z,-5.80
2022-12-19T02:41:08.593Z,-5.80
2022-12-19T02:46:12.633Z,-5.80
2022-12-19T02:51:17.004Z,-5.80
2022-12-19T02:56:41.579Z,-5.80
2022-12-19T03:02:20.581Z,-5.80
2022-12-19T03:07:41.239Z,-5.80
2022-12-19T03:12:53.602Z,-5.80
2022-12-19T03:17:59.144Z,-5.90
2022-12-19T03:23:01.628Z,-5.90
2022-12-19T03:28:11.721Z,-5.90
2022-12-19T03:33:17.362Z,-5.90
2022-12-19T03:38:21.679Z,-6.00
2022-12-19T03:43:26.186Z,-6.00
2022-12-19T03:48:44.032Z,-6.00
2022-12-19T03:54:13.394Z,-6.10
2022-12-19T03:59:37.165Z,-6.10
2022-12-19T04:04:43.844Z,-6.10
2022-12-19T04:09:47.453Z,-6.20
2022-12-19T04:14:50.394Z,-6.20
2022-12-19T04:20:03.939Z,-6.20
2022-12-19T04:25:13.478Z,-6.20
2022-12-19T04:30:18.306Z,-6.20
2022-12-19T04:35:20.838Z,-5.90
2022-12-19T04:40:23.340Z,-6.30
2022-12-19T04:45:26.062Z,-6.30
2022-12-19T04:50:28.436Z,-6.20
2022-12-19T04:55:30.792Z,-6.30
2022-12-19T05:00:34.048Z,-6.20
2022-12-19T05:05:36.535Z,-6.10
2022-12-19T05:10:38.872Z,-6.10
2022-12-19T05:15:41.700Z,-6.10
2022-12-19T05:20:48.012Z,-6.10
2022-12-19T05:25:50.765Z,-6.10
2022-12-19T05:31:01.903Z,-6.10
2022-12-19T05:36:04.740Z,-6.10
2022-12-19T05:41:14.733Z,-6.10
2022-12-19T05:46:18.057Z,-6.10
2022-12-19T05:51:21.090Z,-6.10
2022-12-19T05:56:23.577Z,-6.10
2022-12-19T06:01:27.720Z,-6.10
2022-12-19T06:06:30.337Z,-6.10
2022-12-19T06:11:32.751Z,-6.10
2022-12-19T06:16:35.218Z,-6.10
2022-12-19T06:21:42.267Z,-6.20
2022-12-19T06:26:45.575Z,-6.10
2022-12-19T06:31:48.078Z,-6.10
2022-12-19T06:36:50.470Z,-6.00
2022-12-19T06:42:11.491Z,-6.00
2022-12-19T06:47:14.023Z,-5.90
2022-12-19T06:52:17.470Z,-5.80
2022-12-19T06:57:19.912Z,-5.80
2022-12-19T07:02:27.719Z,-5.90
2022-12-19T07:07:30.344Z,-5.90
2022-12-19T07:12:32.751Z,-5.90
2022-12-19T07:17:35.156Z,-5.80
2022-12-19T07:22:38.073Z,-5.70
2022-12-19T07:27:40.608Z,-5.60
2022-12-19T07:32:42.977Z,-5.60
2022-12-19T07:37:45.425Z,-5.50
2022-12-19T07:42:47.795Z,-5.40
2022-12-19T07:47:51.158Z,-5.30
2022-12-19T07:52:56.197Z,-5.10
2022-12-19T07:57:59.713Z,-5.00
2022-12-19T08:03:04.080Z,-4.80
2022-12-19T08:08:06.541Z,-4.70
2022-12-19T08:13:09.153Z,-4.50
2022-12-19T08:18:12.516Z,-4.40
2022-12-19T08:23:16.250Z,-4.30
2022-12-19T08:28:18.679Z,-4.20
2022-12-19T08:33:23.699Z,-4.10
2022-12-19T08:38:26.051Z,-4.10
2022-12-19T08:43:29.109Z,-4.00
2022-12-19T08:48:33.315Z,-4.00
2022-12-19T08:53:38.248Z,-4.10
2022-12-19T08:58:41.402Z,-4.10
2022-12-19T09:04:05.243Z,-4.00
2022-12-19T09:09:07.293Z,-3.90
2022-12-19T09:14:09.725Z,-3.70
2022-12-19T09:19:15.602Z,-3.40
2022-12-19T09:24:18.189Z,-3.00
2022-12-19T09:29:22.038Z,-2.70
2022-12-19T09:34:38.672Z,-2.50
2022-12-19T09:39:41.711Z,-2.20
2022-12-19T09:45:27.591Z,-2.20
2022-12-19T09:51:14.106Z,-2.00
2022-12-19T09:56:16.583Z,-1.90
2022-12-19T10:01:52.279Z,-1.70
2022-12-19T10:07:20.388Z,-1.50
2022-12-19T10:12:51.422Z,-1.30
2022-12-19T10:18:22.526Z,-1.10
2022-12-19T10:23:57.611Z,-0.90
2022-12-19T10:29:36.811Z,-0.60
2022-12-19T10:34:44.833Z,-0.50
2022-12-19T10:40:12.579Z,-0.40
2022-12-19T10:45:34.532Z,-0.20
2022-12-19T10:50:36.989Z,-0.20
2022-12-19T10:55:50.170Z,-0.10
2022-12-19T11:01:09.561Z,-0.10
2022-12-19T11:06:30.694Z,-0.10
2022-12-19T11:14:40.622Z,-0.10
2022-12-19T11:20:50.374Z,0.10
2022-12-19T11:29:54.948Z,0.20
2022-12-19T11:30:09.925Z,0.20
2022-12-19T11:33:16.361Z,0.30
2022-12-19T11:38:44.902Z,0.30
2022-12-19T11:44:02.178Z,0.30
2022-12-19T11:49:33.790Z,0.40
2022-12-19T11:55:01.999Z,0.50
2022-12-19T12:00:05.849Z,0.70
2022-12-19T12:05:43.121Z,0.80
2022-12-19T12:14:33.020Z,1.00
2022-12-19T12:30:41.674Z,1.10
2022-12-19T12:31:51.384Z,1.10
2022-12-19T12:31:54.117Z,1.10
2022-12-19T12:35:56.640Z,1.10
2022-12-19T12:39:15.984Z,1.60
2022-12-19T12:44:32.606Z,1.30
2022-12-19T12:49:50.738Z,1.50
2022-12-19T12:54:54.265Z,1.50
2022-12-19T13:00:20.229Z,1.60
2022-12-19T13:05:22.672Z,1.50
2022-12-19T13:10:28.393Z,1.30
2022-12-19T13:15:34.399Z,1.20
2022-12-19T13:20:46.671Z,1.20
2022-12-19T13:25:53.074Z,1.20
2022-12-19T13:31:18.296Z,1.20
2022-12-19T13:39:51.598Z,1.20
2022-12-19T13:42:28.824Z,1.20
2022-12-19T13:47:35.703Z,1.20
2022-12-19T13:52:39.308Z,1.10
2022-12-19T13:57:42.164Z,1.10
2022-12-19T14:02:51.195Z,0.90
2022-12-19T14:07:53.915Z,1.00
2022-12-19T14:13:56.928Z,0.90
2022-12-19T14:18:42.841Z,0.90
2022-12-19T14:23:47.986Z,1.00
2022-12-19T14:29:06.991Z,0.90
2022-12-19T14:35:04.016Z,0.90
2022-12-19T14:39:41.880Z,0.90
2022-12-19T14:53:08.570Z,1.00
2022-12-19T14:54:08.441Z,1.00
2022-12-19T14:56:58.282Z,0.90
2022-12-19T15:01:58.119Z,0.90
2022-12-19T15:07:11.251Z,0.90
2022-12-19T15:14:46.844Z,1.10
2022-12-19T15:18:16.314Z,1.00
2022-12-19T15:23:22.332Z,0.90
2022-12-19T15:28:37.017Z,0.90
2022-12-19T15:34:06.674Z,0.90
2022-12-19T15:39:04.575Z,0.90
2022-12-19T15:44:19.917Z,0.90
2022-12-19T15:49:23.281Z,1.00
2022-12-19T15:59:48.155Z,1.10
2022-12-19T16:04:54.503Z,1.10
2022-12-19T16:09:59.312Z,1.10
2022-12-19T16:15:03.712Z,1.10
2022-12-19T16:20:19.889Z,1.10
2022-12-19T16:25:24.860Z,1.10
2022-12-19T16:30:33.376Z,1.10
2022-12-19T16:36:02.986Z,1.10
2022-12-19T16:40:58.150Z,1.10
2022-12-19T16:46:01.717Z,1.10
2022-12-19T16:51:04.606Z,1.10
2022-12-19T16:56:14.342Z,1.10
2022-12-19T17:01:16.949Z,1.00
2022-12-19T17:06:21.235Z,1.00
2022-12-19T17:11:26.289Z,1.00
2022-12-19T17:16:31.149Z,0.90
2022-12-19T17:21:33.563Z,1.60
2022-12-19T17:26:38.807Z,0.90
2022-12-19T17:31:42.260Z,0.90
2022-12-19T17:36:45.240Z,0.80
2022-12-19T17:41:51.858Z,0.80
2022-12-19T17:46:54.391Z,0.80
2022-12-19T17:51:58.870Z,0.70
2022-12-19T17:57:01.324Z,0.70
2022-12-19T18:02:04.674Z,0.60
2022-12-19T18:07:16.340Z,0.70
2022-12-19T18:12:18.792Z,0.60
2022-12-19T18:17:25.722Z,0.70
2022-12-19T18:22:28.132Z,0.70
2022-12-19T18:27:31.996Z,0.70
2022-12-19T18:32:34.558Z,0.60
2022-12-19T18:37:36.895Z,0.60
2022-12-19T18:42:39.473Z,0.70
2022-12-19T18:47:45.675Z,0.60
2022-12-19T18:52:53.576Z,0.60
2022-12-19T18:57:56.082Z,0.60
2022-12-19T19:03:12.154Z,0.60
2022-12-19T19:08:23.775Z,0.70
2022-12-19T19:13:36.651Z,0.70
2022-12-19T19:18:41.316Z,0.70
2022-12-19T19:23:50.438Z,0.60
2022-12-19T19:28:53.068Z,0.70
2022-12-19T19:34:06.667Z,0.70
2022-12-19T19:39:10.809Z,0.70
2022-12-19T19:44:13.229Z,0.70
2022-12-19T19:49:15.751Z,0.70
2022-12-19T19:54:18.356Z,0.70
2022-12-19T19:59:21.476Z,0.70
2022-12-19T20:04:23.906Z,0.70
2022-12-19T20:09:26.520Z,0.80
2022-12-19T20:14:28.943Z,0.80
2022-12-19T20:19:31.280Z,0.80
2022-12-19T20:24:33.671Z,0.80
2022-12-19T20:29:36.643Z,0.90
2022-12-19T20:34:39.035Z,0.90
2022-12-19T20:39:41.377Z,0.90
2022-12-19T20:44:43.814Z,0.90
2022-12-19T20:49:46.172Z,0.90
2022-12-19T20:54:48.555Z,0.90
2022-12-19T20:59:51.049Z,1.00
2022-12-19T21:04:53.743Z,1.00
2022-12-19T21:09:57.890Z,1.00
2022-12-19T21:15:00.269Z,1.00
2022-12-19T21:20:02.661Z,1.00
2022-12-19T21:25:05.491Z,1.00
2022-12-19T21:30:08.645Z,1.00
2022-12-19T21:35:11.417Z,1.10
2022-12-19T21:40:14.172Z,1.10
2022-12-19T21:45:17.199Z,1.10
2022-12-19T21:50:19.769Z,1.10
2022-12-19T21:55:23.251Z,1.10
2022-12-19T22:00:25.669Z,1.50
2022-12-19T22:05:28.080Z,1.20
2022-12-19T22:10:30.473Z,1.20
2022-12-19T22:15:34.995Z,1.20
2022-12-19T22:20:41.874Z,1.20
2022-12-19T22:25:45.350Z,1.90
2022-12-19T22:30:47.772Z,1.30
2022-12-19T22:35:50.299Z,1.40
2022-12-19T22:40:52.646Z,1.80
2022-12-19T22:45:55.456Z,1.30
2022-12-19T22:50:57.867Z,1.40
2022-12-19T22:56:06.541Z,1.40
2022-12-19T23:01:21.631Z,1.40
2022-12-19T23:06:26.278Z,1.40
2022-12-19T23:11:33.233Z,1.40
2022-12-19T23:16:35.942Z,1.50
2022-12-19T23:21:38.464Z,1.40
2022-12-19T23:26:41.146Z,1.50
2022-12-19T23:31:45.835Z,1.50
2022-12-19T23:42:10.687Z,1.50
2022-12-19T23:47:13.293Z,1.50
2022-12-19T23:52:15.696Z,1.50
2022-12-19T23:57:18.079Z,1.50
